sensor_id;sensor_type;location;lat;lon;timestamp;pressure;altitude;pressure_sealevel;temperature;humidity
18533;BME280;9396;51.510;11.934;2023-02-22T00:01:21;100641.41;;;7.52;100.00
18533;BME280;9396;51.510;11.934;2023-02-22T00:04:00;100653.00;;;7.61;100.00
18533;BME280;9396;51.510;11.934;2023-02-22T00:06:27;100642.88;;;7.66;100.00
18533;BME280;9396;51.510;11.934;2023-02-22T00:08:57;100637.44;;;7.68;100.00
18533;BME280;9396;51.510;11.934;2023-02-22T00:11:25;100646.94;;;7.70;99.72
18533;BME280;9396;51.510;11.934;2023-02-22T00:13:52;100644.56;;;7.67;99.62
18533;BME280;9396;51.510;11.934;2023-02-22T00:16:22;100640.94;;;7.68;99.90
18533;BME280;9396;51.510;11.934;2023-02-22T00:18:50;100658.16;;;7.63;99.65
18533;BME280;9396;51.510;11.934;2023-02-22T00:21:17;100648.09;;;7.56;100.00
18533;BME280;9396;51.510;11.934;2023-02-22T00:23:46;100644.19;;;7.19;100.00
18533;BME280;9396;51.510;11.934;2023-02-22T00:26:16;100640.28;;;7.03;100.00
18533;BME280;9396;51.510;11.934;2023-02-22T00:28:45;100641.19;;;7.13;100.00
18533;BME280;9396;51.510;11.934;2023-02-22T00:31:12;100638.97;;;7.29;100.00
18533;BME280;9396;51.510;11.934;2023-02-22T00:33:40;100646.59;;;7.43;100.00
18533;BME280;9396;51.510;11.934;2023-02-22T00:36:08;100641.03;;;7.46;100.00
18533;BME280;9396;51.510;11.934;2023-02-22T00:38:35;100639.38;;;7.45;100.00
18533;BME280;9396;51.510;11.934;2023-02-22T00:41:02;100633.59;;;7.51;100.00
18533;BME280;9396;51.510;11.934;2023-02-22T00:43:30;100639.81;;;7.50;100.00
18533;BME280;9396;51.510;11.934;2023-02-22T00:45:56;100635.69;;;7.57;100.00
18533;BME280;9396;51.510;11.934;2023-02-22T00:48:23;100628.47;;;7.59;100.00
18533;BME280;9396;51.510;11.934;2023-02-22T00:50:50;100639.78;;;7.61;100.00
18533;BME280;9396;51.510;11.934;2023-02-22T00:53:20;100633.06;;;7.57;100.00
18533;BME280;9396;51.510;11.934;2023-02-22T00:55:47;100627.75;;;7.57;100.00
18533;BME280;9396;51.510;11.934;2023-02-22T00:58:14;100640.88;;;7.38;100.00
18533;BME280;9396;51.510;11.934;2023-02-22T01:00:44;100541.63;;;6.71;100.00
18533;BME280;9396;51.510;11.934;2023-02-22T01:03:13;100628.88;;;7.23;100.00
18533;BME280;9396;51.510;11.934;2023-02-22T01:05:40;100628.44;;;7.18;100.00
18533;BME280;9396;51.510;11.934;2023-02-22T01:08:11;100625.28;;;7.24;100.00
18533;BME280;9396;51.510;11.934;2023-02-22T01:10:39;100626.13;;;7.24;100.00
18533;BME280;9396;51.510;11.934;2023-02-22T01:13:08;100629.81;;;7.33;100.00
18533;BME280;9396;51.510;11.934;2023-02-22T01:15:37;100627.41;;;7.30;100.00
18533;BME280;9396;51.510;11.934;2023-02-22T01:18:05;100630.63;;;7.13;100.00
18533;BME280;9396;51.510;11.934;2023-02-22T01:20:32;100628.81;;;7.13;100.00
18533;BME280;9396;51.510;11.934;2023-02-22T01:23:00;100623.72;;;7.21;100.00
18533;BME280;9396;51.510;11.934;2023-02-22T01:25:31;100574.88;;;6.73;100.00
18533;BME280;9396;51.510;11.934;2023-02-22T01:27:59;100626.84;;;6.95;100.00
18533;BME280;9396;51.510;11.934;2023-02-22T01:30:27;100626.47;;;6.99;100.00
18533;BME280;9396;51.510;11.934;2023-02-22T01:32:55;100621.91;;;7.01;100.00
18533;BME280;9396;51.510;11.934;2023-02-22T01:35:25;100627.13;;;6.81;100.00
18533;BME280;9396;51.510;11.934;2023-02-22T01:37:53;100632.09;;;6.63;100.00
18533;BME280;9396;51.510;11.934;2023-02-22T01:40:22;100625.75;;;6.55;100.00
18533;BME280;9396;51.510;11.934;2023-02-22T01:42:51;100622.59;;;6.61;100.00
18533;BME280;9396;51.510;11.934;2023-02-22T01:45:40;100624.75;;;6.78;100.00
18533;BME280;9396;51.510;11.934;2023-02-22T01:48:11;100627.53;;;6.65;100.00
18533;BME280;9396;51.510;11.934;2023-02-22T01:50:42;100621.91;;;6.59;100.00
18533;BME280;9396;51.510;11.934;2023-02-22T01:53:13;100621.66;;;6.62;100.00
18533;BME280;9396;51.510;11.934;2023-02-22T01:55:42;100616.50;;;6.60;100.00
18533;BME280;9396;51.510;11.934;2023-02-22T01:58:10;100614.66;;;6.61;100.00
18533;BME280;9396;51.510;11.934;2023-02-22T02:00:39;100616.25;;;6.63;100.00
18533;BME280;9396;51.510;11.934;2023-02-22T02:03:10;100616.09;;;6.65;100.00
18533;BME280;9396;51.510;11.934;2023-02-22T02:05:38;100610.03;;;6.53;100.00
18533;BME280;9396;51.510;11.934;2023-02-22T02:08:11;100502.66;;;5.65;100.00
18533;BME280;9396;51.510;11.934;2023-02-22T02:10:41;100598.66;;;6.19;100.00
18533;BME280;9396;51.510;11.934;2023-02-22T02:13:09;100613.53;;;6.31;100.00
18533;BME280;9396;51.510;11.934;2023-02-22T02:15:36;100607.16;;;6.34;100.00
18533;BME280;9396;51.510;11.934;2023-02-22T02:18:05;100606.19;;;6.46;100.00
18533;BME280;9396;51.510;11.934;2023-02-22T02:20:38;100612.16;;;6.59;100.00
18533;BME280;9396;51.510;11.934;2023-02-22T02:23:20;100611.06;;;6.73;100.00
18533;BME280;9396;51.510;11.934;2023-02-22T02:32:16;100598.47;;;6.97;100.00
18533;BME280;9396;51.510;11.934;2023-02-22T02:34:48;100601.97;;;6.97;100.00
18533;BME280;9396;51.510;11.934;2023-02-22T02:37:21;100559.84;;;6.74;100.00
18533;BME280;9396;51.510;11.934;2023-02-22T02:39:53;100589.06;;;7.04;100.00
18533;BME280;9396;51.510;11.934;2023-02-22T02:42:27;100591.22;;;7.10;100.00
18533;BME280;9396;51.510;11.934;2023-02-22T02:45:01;100591.00;;;7.02;100.00
18533;BME280;9396;51.510;11.934;2023-02-22T02:47:34;100587.97;;;7.06;100.00
18533;BME280;9396;51.510;11.934;2023-02-22T02:50:05;100579.69;;;7.00;100.00
18533;BME280;9396;51.510;11.934;2023-02-22T02:52:34;100583.44;;;6.97;100.00
18533;BME280;9396;51.510;11.934;2023-02-22T02:55:03;100582.81;;;7.05;100.00
18533;BME280;9396;51.510;11.934;2023-02-22T02:57:31;100583.41;;;7.08;100.00
18533;BME280;9396;51.510;11.934;2023-02-22T02:59:58;100577.59;;;7.14;100.00
18533;BME280;9396;51.510;11.934;2023-02-22T03:02:40;100568.13;;;7.12;100.00
18533;BME280;9396;51.510;11.934;2023-02-22T03:05:22;100567.00;;;6.94;100.00
18533;BME280;9396;51.510;11.934;2023-02-22T03:07:58;100571.13;;;7.07;100.00
18533;BME280;9396;51.510;11.934;2023-02-22T03:10:42;100514.16;;;6.83;100.00
18533;BME280;9396;51.510;11.934;2023-02-22T03:13:14;100553.06;;;7.12;100.00
18533;BME280;9396;51.510;11.934;2023-02-22T03:15:49;100565.59;;;6.79;100.00
18533;BME280;9396;51.510;11.934;2023-02-22T03:18:24;100563.09;;;6.77;100.00
18533;BME280;9396;51.510;11.934;2023-02-22T03:20:58;100554.84;;;6.91;100.00
18533;BME280;9396;51.510;11.934;2023-02-22T03:23:31;100556.25;;;7.06;100.00
18533;BME280;9396;51.510;11.934;2023-02-22T03:26:02;100560.38;;;7.20;100.00
18533;BME280;9396;51.510;11.934;2023-02-22T03:28:31;100553.47;;;7.28;100.00
18533;BME280;9396;51.510;11.934;2023-02-22T03:31:01;100548.44;;;7.25;100.00
18533;BME280;9396;51.510;11.934;2023-02-22T03:33:37;100549.22;;;7.16;100.00
18533;BME280;9396;51.510;11.934;2023-02-22T03:36:09;100549.59;;;7.32;100.00
18533;BME280;9396;51.510;11.934;2023-02-22T03:38:39;100554.97;;;7.42;100.00
18533;BME280;9396;51.510;11.934;2023-02-22T03:41:09;100548.50;;;7.35;100.00
18533;BME280;9396;51.510;11.934;2023-02-22T03:43:40;100408.81;;;6.58;100.00
18533;BME280;9396;51.510;11.934;2023-02-22T03:46:09;100553.97;;;7.43;100.00
18533;BME280;9396;51.510;11.934;2023-02-22T03:48:42;100558.50;;;7.52;100.00
18533;BME280;9396;51.510;11.934;2023-02-22T03:51:12;100553.78;;;7.55;100.00
18533;BME280;9396;51.510;11.934;2023-02-22T03:53:41;100553.13;;;7.63;100.00
18533;BME280;9396;51.510;11.934;2023-02-22T03:56:12;100552.72;;;7.68;100.00
18533;BME280;9396;51.510;11.934;2023-02-22T03:58:41;100555.00;;;7.72;100.00
18533;BME280;9396;51.510;11.934;2023-02-22T04:01:10;100555.78;;;7.63;100.00
18533;BME280;9396;51.510;11.934;2023-02-22T04:03:39;100552.56;;;7.59;100.00
18533;BME280;9396;51.510;11.934;2023-02-22T04:06:06;100553.13;;;7.63;100.00
18533;BME280;9396;51.510;11.934;2023-02-22T04:08:33;100554.72;;;7.75;100.00
18533;BME280;9396;51.510;11.934;2023-02-22T04:11:00;100549.63;;;7.83;100.00
18533;BME280;9396;51.510;11.934;2023-02-22T04:13:27;100553.50;;;7.89;100.00
18533;BME280;9396;51.510;11.934;2023-02-22T04:15:54;100409.66;;;7.09;100.00
18533;BME280;9396;51.510;11.934;2023-02-22T04:18:20;100552.00;;;7.96;100.00
18533;BME280;9396;51.510;11.934;2023-02-22T04:20:48;100551.91;;;7.97;100.00
18533;BME280;9396;51.510;11.934;2023-02-22T04:23:15;100548.28;;;7.98;100.00
18533;BME280;9396;51.510;11.934;2023-02-22T04:25:42;100544.63;;;7.90;100.00
18533;BME280;9396;51.510;11.934;2023-02-22T04:28:09;100546.13;;;7.92;100.00
18533;BME280;9396;51.510;11.934;2023-02-22T04:30:36;100540.91;;;7.72;100.00
18533;BME280;9396;51.510;11.934;2023-02-22T04:33:02;100541.84;;;7.61;100.00
18533;BME280;9396;51.510;11.934;2023-02-22T04:35:29;100534.75;;;7.71;100.00
18533;BME280;9396;51.510;11.934;2023-02-22T04:37:57;100541.91;;;7.80;100.00
18533;BME280;9396;51.510;11.934;2023-02-22T04:40:24;100534.31;;;7.87;100.00
18533;BME280;9396;51.510;11.934;2023-02-22T04:42:50;100540.84;;;7.92;100.00
18533;BME280;9396;51.510;11.934;2023-02-22T04:45:17;100529.59;;;8.00;100.00
18533;BME280;9396;51.510;11.934;2023-02-22T04:47:44;100524.16;;;8.01;100.00
18533;BME280;9396;51.510;11.934;2023-02-22T04:50:11;100527.50;;;8.03;100.00
18533;BME280;9396;51.510;11.934;2023-02-22T04:52:38;100527.34;;;7.95;100.00
18533;BME280;9396;51.510;11.934;2023-02-22T04:55:06;100528.44;;;7.93;100.00
18533;BME280;9396;51.510;11.934;2023-02-22T04:57:34;100526.94;;;7.90;100.00
18533;BME280;9396;51.510;11.934;2023-02-22T05:00:00;100529.56;;;7.90;100.00
18533;BME280;9396;51.510;11.934;2023-02-22T05:02:27;100532.09;;;7.92;100.00
18533;BME280;9396;51.510;11.934;2023-02-22T05:04:54;100527.50;;;7.94;100.00
18533;BME280;9396;51.510;11.934;2023-02-22T05:07:20;100528.06;;;7.97;100.00
18533;BME280;9396;51.510;11.934;2023-02-22T05:09:47;100529.56;;;7.90;100.00
18533;BME280;9396;51.510;11.934;2023-02-22T05:12:15;100522.66;;;7.69;100.00
18533;BME280;9396;51.510;11.934;2023-02-22T05:14:41;100519.63;;;7.83;100.00
18533;BME280;9396;51.510;11.934;2023-02-22T05:17:08;100523.25;;;7.82;100.00
18533;BME280;9396;51.510;11.934;2023-02-22T05:19:35;100517.56;;;7.86;100.00
18533;BME280;9396;51.510;11.934;2023-02-22T05:22:02;100518.50;;;7.85;100.00
18533;BME280;9396;51.510;11.934;2023-02-22T05:24:30;100518.13;;;7.90;100.00
18533;BME280;9396;51.510;11.934;2023-02-22T05:26:56;100505.84;;;7.89;100.00
18533;BME280;9396;51.510;11.934;2023-02-22T05:29:24;100513.44;;;8.03;100.00
18533;BME280;9396;51.510;11.934;2023-02-22T05:31:51;100516.53;;;8.08;100.00
18533;BME280;9396;51.510;11.934;2023-02-22T05:34:18;100513.47;;;8.12;100.00
18533;BME280;9396;51.510;11.934;2023-02-22T05:36:44;100519.31;;;8.06;100.00
18533;BME280;9396;51.510;11.934;2023-02-22T05:39:11;100511.19;;;7.98;100.00
18533;BME280;9396;51.510;11.934;2023-02-22T05:41:38;100512.84;;;7.90;100.00
18533;BME280;9396;51.510;11.934;2023-02-22T05:44:05;100512.19;;;7.67;100.00
18533;BME280;9396;51.510;11.934;2023-02-22T05:46:33;100512.19;;;7.67;100.00
18533;BME280;9396;51.510;11.934;2023-02-22T05:48:59;100512.53;;;7.53;100.00
18533;BME280;9396;51.510;11.934;2023-02-22T05:51:26;100512.44;;;7.64;100.00
18533;BME280;9396;51.510;11.934;2023-02-22T05:53:52;100518.63;;;7.74;100.00
18533;BME280;9396;51.510;11.934;2023-02-22T05:56:21;100519.59;;;7.73;100.00
18533;BME280;9396;51.510;11.934;2023-02-22T05:58:47;100514.22;;;7.84;100.00
18533;BME280;9396;51.510;11.934;2023-02-22T06:01:14;100512.56;;;7.93;100.00
18533;BME280;9396;51.510;11.934;2023-02-22T06:03:45;100517.19;;;8.00;100.00
18533;BME280;9396;51.510;11.934;2023-02-22T06:06:12;100521.25;;;8.04;100.00
18533;BME280;9396;51.510;11.934;2023-02-22T06:08:39;100522.91;;;8.05;100.00
18533;BME280;9396;51.510;11.934;2023-02-22T06:11:06;100521.22;;;7.95;100.00
18533;BME280;9396;51.510;11.934;2023-02-22T06:13:33;100523.16;;;7.93;100.00
18533;BME280;9396;51.510;11.934;2023-02-22T06:16:00;100523.72;;;7.96;100.00
18533;BME280;9396;51.510;11.934;2023-02-22T06:18:27;100525.84;;;8.02;100.00
18533;BME280;9396;51.510;11.934;2023-02-22T06:20:57;100528.81;;;7.79;100.00
18533;BME280;9396;51.510;11.934;2023-02-22T06:23:24;100533.25;;;7.78;100.00
18533;BME280;9396;51.510;11.934;2023-02-22T06:25:51;100536.94;;;7.87;100.00
18533;BME280;9396;51.510;11.934;2023-02-22T06:28:18;100519.66;;;7.92;100.00
18533;BME280;9396;51.510;11.934;2023-02-22T06:30:45;100524.03;;;8.03;100.00
18533;BME280;9396;51.510;11.934;2023-02-22T06:33:11;100522.22;;;8.03;100.00
18533;BME280;9396;51.510;11.934;2023-02-22T06:35:38;100529.03;;;7.96;100.00
18533;BME280;9396;51.510;11.934;2023-02-22T06:38:06;100522.63;;;7.99;100.00
18533;BME280;9396;51.510;11.934;2023-02-22T06:40:32;100521.50;;;7.92;100.00
18533;BME280;9396;51.510;11.934;2023-02-22T06:42:59;100528.50;;;8.02;100.00
18533;BME280;9396;51.510;11.934;2023-02-22T06:45:26;100533.13;;;8.10;100.00
18533;BME280;9396;51.510;11.934;2023-02-22T06:47:53;100533.94;;;8.10;100.00
18533;BME280;9396;51.510;11.934;2023-02-22T06:50:22;100524.91;;;8.13;100.00
18533;BME280;9396;51.510;11.934;2023-02-22T06:52:49;100535.22;;;8.16;100.00
18533;BME280;9396;51.510;11.934;2023-02-22T06:55:19;100536.81;;;7.98;100.00
18533;BME280;9396;51.510;11.934;2023-02-22T06:57:46;100524.88;;;8.03;100.00
18533;BME280;9396;51.510;11.934;2023-02-22T07:00:15;100534.22;;;8.07;100.00
18533;BME280;9396;51.510;11.934;2023-02-22T07:02:43;100536.22;;;8.15;100.00
18533;BME280;9396;51.510;11.934;2023-02-22T07:05:10;100538.91;;;8.24;100.00
18533;BME280;9396;51.510;11.934;2023-02-22T07:07:37;100537.94;;;8.35;100.00
18533;BME280;9396;51.510;11.934;2023-02-22T07:10:05;100538.13;;;8.43;100.00
18533;BME280;9396;51.510;11.934;2023-02-22T07:12:34;100543.56;;;8.51;100.00
18533;BME280;9396;51.510;11.934;2023-02-22T07:15:01;100536.88;;;8.56;100.00
18533;BME280;9396;51.510;11.934;2023-02-22T07:17:27;100539.13;;;8.61;100.00
18533;BME280;9396;51.510;11.934;2023-02-22T07:19:54;100543.19;;;8.65;100.00
18533;BME280;9396;51.510;11.934;2023-02-22T07:22:20;100540.09;;;8.70;100.00
18533;BME280;9396;51.510;11.934;2023-02-22T07:24:47;100540.09;;;8.70;100.00
18533;BME280;9396;51.510;11.934;2023-02-22T07:27:14;100541.34;;;8.56;100.00
18533;BME280;9396;51.510;11.934;2023-02-22T07:29:43;100535.03;;;8.47;100.00
18533;BME280;9396;51.510;11.934;2023-02-22T07:32:11;100538.50;;;8.38;100.00
18533;BME280;9396;51.510;11.934;2023-02-22T07:34:37;100536.16;;;8.45;100.00
18533;BME280;9396;51.510;11.934;2023-02-22T07:37:04;100540.38;;;8.57;100.00
18533;BME280;9396;51.510;11.934;2023-02-22T07:39:31;100536.16;;;8.54;100.00
18533;BME280;9396;51.510;11.934;2023-02-22T07:41:58;100539.81;;;8.53;100.00
18533;BME280;9396;51.510;11.934;2023-02-22T07:44:25;100542.03;;;8.68;100.00
18533;BME280;9396;51.510;11.934;2023-02-22T07:46:53;100533.53;;;8.83;100.00
18533;BME280;9396;51.510;11.934;2023-02-22T07:49:20;100537.59;;;8.97;100.00
18533;BME280;9396;51.510;11.934;2023-02-22T07:51:46;100546.25;;;8.99;100.00
18533;BME280;9396;51.510;11.934;2023-02-22T07:54:13;100543.47;;;8.91;100.00
18533;BME280;9396;51.510;11.934;2023-02-22T07:56:44;100537.72;;;8.86;100.00
18533;BME280;9396;51.510;11.934;2023-02-22T07:59:10;100533.69;;;8.82;100.00
18533;BME280;9396;51.510;11.934;2023-02-22T08:01:37;100532.28;;;8.68;100.00
18533;BME280;9396;51.510;11.934;2023-02-22T08:04:05;100530.31;;;8.80;100.00
18533;BME280;9396;51.510;11.934;2023-02-22T08:06:32;100524.34;;;8.97;100.00
18533;BME280;9396;51.510;11.934;2023-02-22T08:08:58;100529.22;;;9.11;100.00
18533;BME280;9396;51.510;11.934;2023-02-22T08:11:25;100524.16;;;9.17;100.00
18533;BME280;9396;51.510;11.934;2023-02-22T08:13:52;100530.31;;;9.18;100.00
18533;BME280;9396;51.510;11.934;2023-02-22T08:16:19;100529.75;;;9.14;100.00
18533;BME280;9396;51.510;11.934;2023-02-22T08:18:45;100520.13;;;9.13;100.00
18533;BME280;9396;51.510;11.934;2023-02-22T08:21:15;100531.72;;;9.12;100.00
18533;BME280;9396;51.510;11.934;2023-02-22T08:23:41;100526.16;;;9.06;100.00
18533;BME280;9396;51.510;11.934;2023-02-22T08:26:10;100527.38;;;9.21;100.00
18533;BME280;9396;51.510;11.934;2023-02-22T08:28:40;100525.00;;;9.18;100.00
18533;BME280;9396;51.510;11.934;2023-02-22T08:31:07;100520.50;;;9.37;100.00
18533;BME280;9396;51.510;11.934;2023-02-22T08:33:34;100521.34;;;9.38;100.00
18533;BME280;9396;51.510;11.934;2023-02-22T08:36:00;100522.16;;;9.48;100.00
18533;BME280;9396;51.510;11.934;2023-02-22T08:38:29;100521.00;;;9.60;100.00
18533;BME280;9396;51.510;11.934;2023-02-22T08:40:56;100524.78;;;9.57;100.00
18533;BME280;9396;51.510;11.934;2023-02-22T08:43:23;100520.56;;;9.64;100.00
18533;BME280;9396;51.510;11.934;2023-02-22T08:45:50;100521.25;;;9.66;100.00
18533;BME280;9396;51.510;11.934;2023-02-22T08:48:17;100525.03;;;9.73;100.00
18533;BME280;9396;51.510;11.934;2023-02-22T08:50:44;100518.16;;;9.71;100.00
18533;BME280;9396;51.510;11.934;2023-02-22T08:53:12;100515.91;;;9.76;100.00
18533;BME280;9396;51.510;11.934;2023-02-22T08:55:41;100516.41;;;9.52;100.00
18533;BME280;9396;51.510;11.934;2023-02-22T08:58:08;100511.38;;;9.59;100.00
18533;BME280;9396;51.510;11.934;2023-02-22T09:00:36;100510.38;;;9.60;100.00
18533;BME280;9396;51.510;11.934;2023-02-22T09:03:04;100514.03;;;9.59;100.00
18533;BME280;9396;51.510;11.934;2023-02-22T09:05:31;100509.09;;;9.73;100.00
18533;BME280;9396;51.510;11.934;2023-02-22T09:07:58;100511.84;;;9.72;100.00
18533;BME280;9396;51.510;11.934;2023-02-22T09:10:27;100461.78;;;9.50;100.00
18533;BME280;9396;51.510;11.934;2023-02-22T09:12:57;100512.50;;;9.93;100.00
18533;BME280;9396;51.510;11.934;2023-02-22T09:15:25;100516.63;;;10.05;100.00
18533;BME280;9396;51.510;11.934;2023-02-22T09:17:52;100519.94;;;10.17;100.00
18533;BME280;9396;51.510;11.934;2023-02-22T09:20:20;100519.56;;;10.12;100.00
18533;BME280;9396;51.510;11.934;2023-02-22T09:22:48;100512.13;;;10.15;100.00
18533;BME280;9396;51.510;11.934;2023-02-22T09:25:15;100511.44;;;10.13;100.00
18533;BME280;9396;51.510;11.934;2023-02-22T09:27:42;100511.59;;;10.02;100.00
18533;BME280;9396;51.510;11.934;2023-02-22T09:30:18;100512.13;;;10.15;100.00
18533;BME280;9396;51.510;11.934;2023-02-22T09:32:45;100507.28;;;10.28;100.00
18533;BME280;9396;51.510;11.934;2023-02-22T09:35:11;100504.63;;;10.28;100.00
18533;BME280;9396;51.510;11.934;2023-02-22T09:37:38;100509.22;;;10.36;100.00
18533;BME280;9396;51.510;11.934;2023-02-22T09:40:12;100499.53;;;10.35;100.00
18533;BME280;9396;51.510;11.934;2023-02-22T09:42:46;100499.50;;;10.44;100.00
18533;BME280;9396;51.510;11.934;2023-02-22T09:45:22;100498.97;;;10.58;100.00
18533;BME280;9396;51.510;11.934;2023-02-22T09:47:51;100500.34;;;10.62;100.00
18533;BME280;9396;51.510;11.934;2023-02-22T09:50:22;100493.88;;;10.65;100.00
18533;BME280;9396;51.510;11.934;2023-02-22T09:52:53;100492.91;;;10.66;99.95
18533;BME280;9396;51.510;11.934;2023-02-22T09:55:28;100487.03;;;10.62;100.00
18533;BME280;9396;51.510;11.934;2023-02-22T09:58:00;100483.53;;;10.79;100.00
18533;BME280;9396;51.510;11.934;2023-02-22T10:00:32;100478.25;;;10.88;99.79
18533;BME280;9396;51.510;11.934;2023-02-22T10:03:15;100485.88;;;10.82;99.62
18533;BME280;9396;51.510;11.934;2023-02-22T10:05:47;100478.25;;;10.88;99.78
18533;BME280;9396;51.510;11.934;2023-02-22T10:08:18;100473.72;;;10.98;99.41
18533;BME280;9396;51.510;11.934;2023-02-22T10:10:47;100474.75;;;11.05;99.52
18533;BME280;9396;51.510;11.934;2023-02-22T10:13:24;100470.84;;;11.17;98.81
18533;BME280;9396;51.510;11.934;2023-02-22T10:15:58;100468.44;;;11.31;98.53
18533;BME280;9396;51.510;11.934;2023-02-22T10:18:41;100465.03;;;11.47;97.63
18533;BME280;9396;51.510;11.934;2023-02-22T10:21:20;100467.94;;;11.28;96.24
18533;BME280;9396;51.510;11.934;2023-02-22T10:23:57;100451.22;;;11.18;96.84
18533;BME280;9396;51.510;11.934;2023-02-22T10:26:31;100457.22;;;11.20;96.76
18533;BME280;9396;51.510;11.934;2023-02-22T10:29:04;100452.88;;;11.19;96.74
18533;BME280;9396;51.510;11.934;2023-02-22T10:31:38;100457.09;;;11.04;95.48
18533;BME280;9396;51.510;11.934;2023-02-22T10:34:10;100447.88;;;11.16;96.73
18533;BME280;9396;51.510;11.934;2023-02-22T10:36:40;100447.72;;;11.17;96.13
18533;BME280;9396;51.510;11.934;2023-02-22T10:39:15;100442.66;;;11.32;96.43
18533;BME280;9396;51.510;11.934;2023-02-22T10:41:49;100437.94;;;11.51;95.89
18533;BME280;9396;51.510;11.934;2023-02-22T10:44:16;100437.97;;;11.59;94.50
18533;BME280;9396;51.510;11.934;2023-02-22T10:46:45;100441.59;;;11.50;93.11
18533;BME280;9396;51.510;11.934;2023-02-22T10:49:19;100349.13;;;11.01;93.97
18533;BME280;9396;51.510;11.934;2023-02-22T10:51:47;100436.44;;;11.49;93.42
18533;BME280;9396;51.510;11.934;2023-02-22T10:54:23;100438.50;;;11.63;93.09
18533;BME280;9396;51.510;11.934;2023-02-22T10:56:53;100438.13;;;11.58;93.46
18533;BME280;9396;51.510;11.934;2023-02-22T10:59:29;100437.09;;;11.51;93.45
18533;BME280;9396;51.510;11.934;2023-02-22T11:01:58;100433.25;;;11.45;92.71
18533;BME280;9396;51.510;11.934;2023-02-22T11:04:25;100433.25;;;11.45;92.62
18533;BME280;9396;51.510;11.934;2023-02-22T11:07:20;100432.47;;;11.53;92.72
18533;BME280;9396;51.510;11.934;2023-02-22T11:09:49;100430.88;;;11.68;93.40
18533;BME280;9396;51.510;11.934;2023-02-22T11:12:19;100431.91;;;11.75;93.09
18533;BME280;9396;51.510;11.934;2023-02-22T11:14:47;100415.63;;;11.78;92.39
18533;BME280;9396;51.510;11.934;2023-02-22T11:17:21;100414.25;;;11.74;91.83
18533;BME280;9396;51.510;11.934;2023-02-22T11:19:50;100412.94;;;11.78;91.97
18533;BME280;9396;51.510;11.934;2023-02-22T11:22:22;100415.16;;;11.91;91.75
18533;BME280;9396;51.510;11.934;2023-02-22T11:24:52;100405.47;;;11.81;91.18
18533;BME280;9396;51.510;11.934;2023-02-22T11:27:26;100409.28;;;11.79;90.47
18533;BME280;9396;51.510;11.934;2023-02-22T11:30:17;100408.59;;;11.77;90.62
18533;BME280;9396;51.510;11.934;2023-02-22T11:32:49;100405.78;;;11.78;91.19
18533;BME280;9396;51.510;11.934;2023-02-22T11:35:30;100404.16;;;11.94;91.70
18533;BME280;9396;51.510;11.934;2023-02-22T11:38:10;100395.53;;;12.08;91.61
18533;BME280;9396;51.510;11.934;2023-02-22T11:40:37;100390.03;;;12.01;89.82
18533;BME280;9396;51.510;11.934;2023-02-22T11:43:08;100334.75;;;11.61;89.24
18533;BME280;9396;51.510;11.934;2023-02-22T11:45:37;100384.00;;;11.91;90.48
18533;BME280;9396;51.510;11.934;2023-02-22T11:48:06;100376.03;;;11.99;90.50
18533;BME280;9396;51.510;11.934;2023-02-22T11:50:39;100375.34;;;11.97;90.16
18533;BME280;9396;51.510;11.934;2023-02-22T11:53:26;100377.69;;;12.00;89.56
18533;BME280;9396;51.510;11.934;2023-02-22T11:56:09;100372.00;;;11.95;90.04
18533;BME280;9396;51.510;11.934;2023-02-22T11:58:43;100376.34;;;11.96;89.32
18533;BME280;9396;51.510;11.934;2023-02-22T12:01:20;100368.00;;;11.91;89.56
18533;BME280;9396;51.510;11.934;2023-02-22T12:04:12;100361.19;;;11.89;90.46
18533;BME280;9396;51.510;11.934;2023-02-22T12:06:54;100367.66;;;11.86;89.91
18533;BME280;9396;51.510;11.934;2023-02-22T12:09:33;100366.97;;;11.84;90.08
18533;BME280;9396;51.510;11.934;2023-02-22T12:12:09;100365.66;;;11.80;90.07
18533;BME280;9396;51.510;11.934;2023-02-22T12:14:46;100351.66;;;11.78;89.77
18533;BME280;9396;51.510;11.934;2023-02-22T12:17:25;100351.81;;;11.84;90.09
18533;BME280;9396;51.510;11.934;2023-02-22T12:20:03;100353.84;;;11.99;89.92
18533;BME280;9396;51.510;11.934;2023-02-22T12:22:37;100352.53;;;12.11;89.69
18533;BME280;9396;51.510;11.934;2023-02-22T12:25:15;100347.91;;;12.21;90.18
18533;BME280;9396;51.510;11.934;2023-02-22T12:27:46;100353.91;;;12.31;89.73
18533;BME280;9396;51.510;11.934;2023-02-22T12:30:17;100349.38;;;12.23;88.23
18533;BME280;9396;51.510;11.934;2023-02-22T12:32:50;100350.41;;;12.22;88.31
18533;BME280;9396;51.510;11.934;2023-02-22T12:35:22;100348.22;;;12.26;88.76
18533;BME280;9396;51.510;11.934;2023-02-22T12:37:55;100345.22;;;12.13;88.59
18533;BME280;9396;51.510;11.934;2023-02-22T12:40:30;100348.56;;;12.07;88.72
18533;BME280;9396;51.510;11.934;2023-02-22T12:43:02;100349.53;;;12.06;89.62
18533;BME280;9396;51.510;11.934;2023-02-22T12:45:35;100331.38;;;12.09;89.05
18533;BME280;9396;51.510;11.934;2023-02-22T12:48:15;100339.56;;;12.24;88.91
18533;BME280;9396;51.510;11.934;2023-02-22T12:50:49;100337.88;;;12.15;89.18
18533;BME280;9396;51.510;11.934;2023-02-22T12:53:20;100340.22;;;12.18;88.71
18533;BME280;9396;51.510;11.934;2023-02-22T12:55:52;100336.72;;;12.17;89.22
18533;BME280;9396;51.510;11.934;2023-02-22T12:58:24;100284.69;;;11.81;88.67
18533;BME280;9396;51.510;11.934;2023-02-22T13:00:59;100335.72;;;12.18;88.56
18533;BME280;9396;51.510;11.934;2023-02-22T13:03:32;100330.56;;;12.17;89.38
18533;BME280;9396;51.510;11.934;2023-02-22T13:06:13;100330.06;;;12.13;88.44
18533;BME280;9396;51.510;11.934;2023-02-22T13:08:50;100325.06;;;12.18;88.77
18533;BME280;9396;51.510;11.934;2023-02-22T13:11:26;100325.38;;;12.07;89.25